sensor_id;sensor_type;location;lat;lon;timestamp;P1;durP1;ratioP1;P2;durP2;ratioP2
53666;SDS011;39568;51.026;5.468;2023-10-09T00:01:50;16.67;;;8.35;;
53666;SDS011;39568;51.026;5.468;2023-10-09T00:04:17;18.52;;;8.82;;
53666;SDS011;39568;51.026;5.468;2023-10-09T00:06:45;17.58;;;7.55;;
53666;SDS011;39568;51.026;5.468;2023-10-09T00:09:13;12.02;;;8.38;;
53666;SDS011;39568;51.026;5.468;2023-10-09T00:14:14;15.55;;;7.85;;
53666;SDS011;39568;51.026;5.468;2023-10-09T00:16:43;22.42;;;8.73;;
53666;SDS011;39568;51.026;5.468;2023-10-09T00:19:13;14.30;;;8.75;;
53666;SDS011;39568;51.026;5.468;2023-10-09T00:21:42;19.27;;;7.88;;
53666;SDS011;39568;51.026;5.468;2023-10-09T00:24:10;15.10;;;8.00;;
53666;SDS011;39568;51.026;5.468;2023-10-09T00:26:47;17.40;;;8.60;;
53666;SDS011;39568;51.026;5.468;2023-10-09T00:29:15;15.90;;;9.02;;
53666;SDS011;39568;51.026;5.468;2023-10-09T00:31:48;10.73;;;7.18;;
53666;SDS011;39568;51.026;5.468;2023-10-09T00:34:20;16.02;;;8.88;;
53666;SDS011;39568;51.026;5.468;2023-10-09T00:36:47;20.80;;;8.85;;
53666;SDS011;39568;51.026;5.468;2023-10-09T00:39:17;13.55;;;7.78;;
53666;SDS011;39568;51.026;5.468;2023-10-09T00:41:58;13.57;;;9.43;;
53666;SDS011;39568;51.026;5.468;2023-10-09T00:44:27;15.25;;;8.63;;
53666;SDS011;39568;51.026;5.468;2023-10-09T00:47:03;15.95;;;8.05;;
53666;SDS011;39568;51.026;5.468;2023-10-09T00:49:36;11.90;;;8.32;;
53666;SDS011;39568;51.026;5.468;2023-10-09T00:52:07;14.45;;;8.20;;
53666;SDS011;39568;51.026;5.468;2023-10-09T00:54:43;12.65;;;8.05;;
53666;SDS011;39568;51.026;5.468;2023-10-09T00:57:16;14.52;;;7.78;;
53666;SDS011;39568;51.026;5.468;2023-10-09T00:59:51;18.67;;;7.55;;
53666;SDS011;39568;51.026;5.468;2023-10-09T01:02:25;20.35;;;8.63;;
53666;SDS011;39568;51.026;5.468;2023-10-09T01:05:00;20.23;;;8.50;;
53666;SDS011;39568;51.026;5.468;2023-10-09T01:07:43;9.65;;;7.10;;
53666;SDS011;39568;51.026;5.468;2023-10-09T01:10:12;10.27;;;6.40;;
53666;SDS011;39568;51.026;5.468;2023-10-09T01:12:41;10.43;;;6.78;;
53666;SDS011;39568;51.026;5.468;2023-10-09T01:15:11;20.55;;;7.97;;
53666;SDS011;39568;51.026;5.468;2023-10-09T01:18:00;19.33;;;8.73;;
53666;SDS011;39568;51.026;5.468;2023-10-09T01:20:32;13.65;;;6.53;;
53666;SDS011;39568;51.026;5.468;2023-10-09T01:23:08;22.52;;;6.97;;
53666;SDS011;39568;51.026;5.468;2023-10-09T01:25:36;16.27;;;7.50;;
53666;SDS011;39568;51.026;5.468;2023-10-09T01:28:09;11.10;;;7.70;;
53666;SDS011;39568;51.026;5.468;2023-10-09T01:30:41;13.23;;;7.75;;
53666;SDS011;39568;51.026;5.468;2023-10-09T01:33:08;13.68;;;8.13;;
53666;SDS011;39568;51.026;5.468;2023-10-09T01:35:47;16.13;;;8.35;;
53666;SDS011;39568;51.026;5.468;2023-10-09T01:38:17;10.90;;;7.40;;
53666;SDS011;39568;51.026;5.468;2023-10-09T01:40:55;15.20;;;8.55;;
53666;SDS011;39568;51.026;5.468;2023-10-09T01:43:32;15.25;;;8.25;;
53666;SDS011;39568;51.026;5.468;2023-10-09T01:45:59;8.10;;;6.30;;
53666;SDS011;39568;51.026;5.468;2023-10-09T01:48:29;8.80;;;7.50;;
53666;SDS011;39568;51.026;5.468;2023-10-09T01:51:01;17.67;;;7.72;;
53666;SDS011;39568;51.026;5.468;2023-10-09T01:53:31;9.05;;;6.72;;
53666;SDS011;39568;51.026;5.468;2023-10-09T01:56:07;13.73;;;5.95;;
53666;SDS011;39568;51.026;5.468;2023-10-09T02:01:06;11.05;;;6.78;;
53666;SDS011;39568;51.026;5.468;2023-10-09T02:03:34;13.57;;;5.25;;
53666;SDS011;39568;51.026;5.468;2023-10-09T02:06:02;24.77;;;7.88;;
53666;SDS011;39568;51.026;5.468;2023-10-09T02:08:31;12.82;;;6.93;;
53666;SDS011;39568;51.026;5.468;2023-10-09T02:11:01;19.52;;;8.90;;
53666;SDS011;39568;51.026;5.468;2023-10-09T02:13:28;12.07;;;6.75;;
53666;SDS011;39568;51.026;5.468;2023-10-09T02:15:56;12.52;;;8.07;;
53666;SDS011;39568;51.026;5.468;2023-10-09T02:18:39;15.07;;;7.28;;
53666;SDS011;39568;51.026;5.468;2023-10-09T02:21:18;11.55;;;7.05;;
53666;SDS011;39568;51.026;5.468;2023-10-09T02:23:55;13.98;;;7.30;;
53666;SDS011;39568;51.026;5.468;2023-10-09T02:26:23;12.27;;;6.05;;
53666;SDS011;39568;51.026;5.468;2023-10-09T02:28:51;15.02;;;6.90;;
53666;SDS011;39568;51.026;5.468;2023-10-09T02:31:23;11.48;;;7.05;;
53666;SDS011;39568;51.026;5.468;2023-10-09T02:33:53;14.32;;;7.18;;
53666;SDS011;39568;51.026;5.468;2023-10-09T02:36:20;13.48;;;8.27;;
53666;SDS011;39568;51.026;5.468;2023-10-09T02:38:47;12.43;;;7.85;;
53666;SDS011;39568;51.026;5.468;2023-10-09T02:41:19;18.80;;;8.55;;
53666;SDS011;39568;51.026;5.468;2023-10-09T02:43:53;14.73;;;8.23;;
53666;SDS011;39568;51.026;5.468;2023-10-09T02:46:21;8.20;;;6.60;;
53666;SDS011;39568;51.026;5.468;2023-10-09T02:48:55;15.35;;;8.63;;
53666;SDS011;39568;51.026;5.468;2023-10-09T02:51:24;16.73;;;8.55;;
53666;SDS011;39568;51.026;5.468;2023-10-09T02:53:59;24.27;;;8.25;;
53666;SDS011;39568;51.026;5.468;2023-10-09T02:56:45;17.20;;;7.00;;
53666;SDS011;39568;51.026;5.468;2023-10-09T02:59:20;18.13;;;7.57;;
53666;SDS011;39568;51.026;5.468;2023-10-09T03:01:47;10.68;;;7.53;;
53666;SDS011;39568;51.026;5.468;2023-10-09T03:04:15;19.83;;;8.40;;
53666;SDS011;39568;51.026;5.468;2023-10-09T03:06:41;12.98;;;7.35;;
53666;SDS011;39568;51.026;5.468;2023-10-09T03:09:15;10.48;;;6.78;;
53666;SDS011;39568;51.026;5.468;2023-10-09T03:11:53;12.82;;;8.35;;
53666;SDS011;39568;51.026;5.468;2023-10-09T03:14:27;10.10;;;7.28;;
53666;SDS011;39568;51.026;5.468;2023-10-09T03:16:54;12.57;;;7.88;;
53666;SDS011;39568;51.026;5.468;2023-10-09T03:19:22;16.52;;;6.00;;
53666;SDS011;39568;51.026;5.468;2023-10-09T03:21:50;11.50;;;7.68;;
53666;SDS011;39568;51.026;5.468;2023-10-09T03:24:16;9.50;;;6.75;;
53666;SDS011;39568;51.026;5.468;2023-10-09T03:26:45;16.58;;;7.43;;
53666;SDS011;39568;51.026;5.468;2023-10-09T03:29:13;16.90;;;8.38;;
53666;SDS011;39568;51.026;5.468;2023-10-09T03:31:40;12.13;;;8.77;;
53666;SDS011;39568;51.026;5.468;2023-10-09T03:34:08;18.00;;;8.63;;
53666;SDS011;39568;51.026;5.468;2023-10-09T03:36:35;12.90;;;8.55;;
53666;SDS011;39568;51.026;5.468;2023-10-09T03:39:04;16.08;;;9.10;;
53666;SDS011;39568;51.026;5.468;2023-10-09T03:41:43;9.88;;;7.53;;
53666;SDS011;39568;51.026;5.468;2023-10-09T03:44:13;14.63;;;8.85;;
53666;SDS011;39568;51.026;5.468;2023-10-09T03:46:43;14.57;;;8.20;;
53666;SDS011;39568;51.026;5.468;2023-10-09T03:49:10;12.15;;;7.75;;
53666;SDS011;39568;51.026;5.468;2023-10-09T03:51:39;16.25;;;7.28;;
53666;SDS011;39568;51.026;5.468;2023-10-09T03:54:07;13.73;;;9.05;;
53666;SDS011;39568;51.026;5.468;2023-10-09T03:56:34;15.35;;;8.00;;
53666;SDS011;39568;51.026;5.468;2023-10-09T03:59:01;22.48;;;7.70;;
53666;SDS011;39568;51.026;5.468;2023-10-09T04:01:31;12.85;;;9.00;;
53666;SDS011;39568;51.026;5.468;2023-10-09T04:04:03;15.95;;;8.73;;
53666;SDS011;39568;51.026;5.468;2023-10-09T04:06:32;11.80;;;7.20;;
53666;SDS011;39568;51.026;5.468;2023-10-09T04:08:59;11.57;;;8.10;;
53666;SDS011;39568;51.026;5.468;2023-10-09T04:11:39;19.30;;;10.05;;
53666;SDS011;39568;51.026;5.468;2023-10-09T04:14:08;13.10;;;9.02;;
53666;SDS011;39568;51.026;5.468;2023-10-09T04:16:46;12.77;;;8.70;;
53666;SDS011;39568;51.026;5.468;2023-10-09T04:19:17;15.07;;;8.93;;
53666;SDS011;39568;51.026;5.468;2023-10-09T04:21:47;22.13;;;9.10;;
53666;SDS011;39568;51.026;5.468;2023-10-09T04:24:13;16.23;;;7.97;;
53666;SDS011;39568;51.026;5.468;2023-10-09T04:26:49;13.75;;;9.18;;
53666;SDS011;39568;51.026;5.468;2023-10-09T04:29:21;16.83;;;9.02;;
53666;SDS011;39568;51.026;5.468;2023-10-09T04:34:21;15.02;;;9.50;;
53666;SDS011;39568;51.026;5.468;2023-10-09T04:36:47;15.30;;;8.30;;
53666;SDS011;39568;51.026;5.468;2023-10-09T04:39:16;13.07;;;8.07;;
53666;SDS011;39568;51.026;5.468;2023-10-09T04:41:58;11.38;;;8.45;;
53666;SDS011;39568;51.026;5.468;2023-10-09T04:47:13;16.73;;;9.05;;
53666;SDS011;39568;51.026;5.468;2023-10-09T04:49:44;17.17;;;9.52;;
53666;SDS011;39568;51.026;5.468;2023-10-09T04:52:26;16.90;;;9.35;;
53666;SDS011;39568;51.026;5.468;2023-10-09T04:55:07;15.13;;;7.47;;
53666;SDS011;39568;51.026;5.468;2023-10-09T04:57:44;17.95;;;7.70;;
53666;SDS011;39568;51.026;5.468;2023-10-09T05:00:25;13.25;;;8.38;;
53666;SDS011;39568;51.026;5.468;2023-10-09T05:03:13;16.27;;;8.02;;
53666;SDS011;39568;51.026;5.468;2023-10-09T05:05:50;19.17;;;8.50;;
53666;SDS011;39568;51.026;5.468;2023-10-09T05:08:25;13.55;;;8.07;;
53666;SDS011;39568;51.026;5.468;2023-10-09T05:10:54;15.45;;;7.32;;
53666;SDS011;39568;51.026;5.468;2023-10-09T05:13:31;15.82;;;7.68;;
53666;SDS011;39568;51.026;5.468;2023-10-09T05:16:08;16.27;;;8.27;;
53666;SDS011;39568;51.026;5.468;2023-10-09T05:18:44;18.77;;;7.88;;
53666;SDS011;39568;51.026;5.468;2023-10-09T05:21:21;21.33;;;9.60;;
53666;SDS011;39568;51.026;5.468;2023-10-09T05:24:05;12.85;;;8.07;;
53666;SDS011;39568;51.026;5.468;2023-10-09T05:26:48;23.00;;;8.85;;
53666;SDS011;39568;51.026;5.468;2023-10-09T05:29:37;29.15;;;9.85;;
53666;SDS011;39568;51.026;5.468;2023-10-09T05:32:13;20.98;;;8.88;;
53666;SDS011;39568;51.026;5.468;2023-10-09T05:34:54;16.23;;;9.40;;
53666;SDS011;39568;51.026;5.468;2023-10-09T05:37:40;17.38;;;9.18;;
53666;SDS011;39568;51.026;5.468;2023-10-09T05:40:08;20.55;;;9.70;;
53666;SDS011;39568;51.026;5.468;2023-10-09T05:42:48;14.63;;;9.10;;
53666;SDS011;39568;51.026;5.468;2023-10-09T05:45:24;12.50;;;8.82;;
53666;SDS011;39568;51.026;5.468;2023-10-09T05:48:09;16.40;;;9.45;;
53666;SDS011;39568;51.026;5.468;2023-10-09T05:50:51;14.40;;;9.80;;
53666;SDS011;39568;51.026;5.468;2023-10-09T05:53:35;15.52;;;10.45;;
53666;SDS011;39568;51.026;5.468;2023-10-09T05:56:15;17.30;;;8.88;;
53666;SDS011;39568;51.026;5.468;2023-10-09T05:59:00;14.77;;;8.45;;
53666;SDS011;39568;51.026;5.468;2023-10-09T06:01:43;17.23;;;9.13;;
53666;SDS011;39568;51.026;5.468;2023-10-09T06:04:33;16.83;;;9.70;;
53666;SDS011;39568;51.026;5.468;2023-10-09T06:07:15;19.58;;;10.23;;
53666;SDS011;39568;51.026;5.468;2023-10-09T06:09:48;20.00;;;10.50;;
53666;SDS011;39568;51.026;5.468;2023-10-09T06:12:18;18.98;;;10.15;;
53666;SDS011;39568;51.026;5.468;2023-10-09T06:15:14;23.35;;;9.43;;
53666;SDS011;39568;51.026;5.468;2023-10-09T06:18:15;12.48;;;8.93;;
53666;SDS011;39568;51.026;5.468;2023-10-09T06:20:59;19.75;;;9.40;;
53666;SDS011;39568;51.026;5.468;2023-10-09T06:23:56;29.48;;;11.10;;
53666;SDS011;39568;51.026;5.468;2023-10-09T06:26:40;19.60;;;8.27;;
53666;SDS011;39568;51.026;5.468;2023-10-09T06:29:16;20.67;;;8.18;;
53666;SDS011;39568;51.026;5.468;2023-10-09T06:31:42;13.50;;;9.23;;
53666;SDS011;39568;51.026;5.468;2023-10-09T06:34:41;11.50;;;7.13;;
53666;SDS011;39568;51.026;5.468;2023-10-09T06:37:10;18.20;;;9.07;;
53666;SDS011;39568;51.026;5.468;2023-10-09T06:40:00;18.00;;;9.95;;
53666;SDS011;39568;51.026;5.468;2023-10-09T06:42:56;15.52;;;9.60;;
53666;SDS011;39568;51.026;5.468;2023-10-09T06:45:23;28.70;;;10.23;;
53666;SDS011;39568;51.026;5.468;2023-10-09T06:48:08;18.48;;;9.77;;
53666;SDS011;39568;51.026;5.468;2023-10-09T06:50:55;16.30;;;9.60;;
53666;SDS011;39568;51.026;5.468;2023-10-09T06:53:23;18.35;;;10.10;;
53666;SDS011;39568;51.026;5.468;2023-10-09T06:55:54;17.58;;;9.40;;
53666;SDS011;39568;51.026;5.468;2023-10-09T06:58:30;16.80;;;9.75;;
53666;SDS011;39568;51.026;5.468;2023-10-09T07:01:07;19.42;;;9.63;;
53666;SDS011;39568;51.026;5.468;2023-10-09T07:03:50;23.25;;;10.75;;
53666;SDS011;39568;51.026;5.468;2023-10-09T07:06:18;18.48;;;8.48;;
53666;SDS011;39568;51.026;5.468;2023-10-09T07:09:13;18.80;;;10.73;;
53666;SDS011;39568;51.026;5.468;2023-10-09T07:14:29;20.52;;;10.65;;
53666;SDS011;39568;51.026;5.468;2023-10-09T07:17:17;9.68;;;8.50;;
53666;SDS011;39568;51.026;5.468;2023-10-09T07:20:09;16.67;;;10.10;;
53666;SDS011;39568;51.026;5.468;2023-10-09T07:25:22;16.42;;;9.55;;
53666;SDS011;39568;51.026;5.468;2023-10-09T07:28:10;14.52;;;9.98;;
53666;SDS011;39568;51.026;5.468;2023-10-09T07:31:01;16.15;;;8.02;;
53666;SDS011;39568;51.026;5.468;2023-10-09T07:33:28;18.55;;;8.90;;
53666;SDS011;39568;51.026;5.468;2023-10-09T07:36:17;15.77;;;10.18;;
53666;SDS011;39568;51.026;5.468;2023-10-09T07:38:55;22.02;;;11.30;;
53666;SDS011;39568;51.026;5.468;2023-10-09T07:41:29;24.40;;;11.53;;
53666;SDS011;39568;51.026;5.468;2023-10-09T07:44:11;18.65;;;9.55;;
53666;SDS011;39568;51.026;5.468;2023-10-09T07:47:02;15.52;;;9.45;;
53666;SDS011;39568;51.026;5.468;2023-10-09T07:49:47;19.83;;;11.30;;
53666;SDS011;39568;51.026;5.468;2023-10-09T07:52:17;18.40;;;9.60;;
53666;SDS011;39568;51.026;5.468;2023-10-09T07:54:47;20.80;;;9.45;;
53666;SDS011;39568;51.026;5.468;2023-10-09T07:57:18;14.23;;;9.90;;
53666;SDS011;39568;51.026;5.468;2023-10-09T07:59:52;18.63;;;10.55;;
53666;SDS011;39568;51.026;5.468;2023-10-09T08:02:37;16.65;;;10.73;;
53666;SDS011;39568;51.026;5.468;2023-10-09T08:05:04;17.67;;;9.35;;
53666;SDS011;39568;51.026;5.468;2023-10-09T08:07:32;19.73;;;10.45;;
53666;SDS011;39568;51.026;5.468;2023-10-09T08:10:02;23.10;;;9.10;;
53666;SDS011;39568;51.026;5.468;2023-10-09T08:12:47;17.50;;;9.48;;
53666;SDS011;39568;51.026;5.468;2023-10-09T08:15:48;19.70;;;9.48;;
53666;SDS011;39568;51.026;5.468;2023-10-09T08:18:21;16.52;;;9.95;;
53666;SDS011;39568;51.026;5.468;2023-10-09T08:20:54;23.13;;;11.55;;
53666;SDS011;39568;51.026;5.468;2023-10-09T08:23:38;15.63;;;8.00;;
53666;SDS011;39568;51.026;5.468;2023-10-09T08:26:17;23.75;;;9.85;;
53666;SDS011;39568;51.026;5.468;2023-10-09T08:28:55;20.60;;;10.43;;
53666;SDS011;39568;51.026;5.468;2023-10-09T08:31:42;19.52;;;10.75;;
53666;SDS011;39568;51.026;5.468;2023-10-09T08:34:13;18.60;;;10.38;;
53666;SDS011;39568;51.026;5.468;2023-10-09T08:36:49;14.38;;;8.05;;
53666;SDS011;39568;51.026;5.468;2023-10-09T08:39:18;20.48;;;9.18;;
53666;SDS011;39568;51.026;5.468;2023-10-09T08:41:51;10.77;;;7.05;;
53666;SDS011;39568;51.026;5.468;2023-10-09T08:44:19;18.77;;;9.38;;
53666;SDS011;39568;51.026;5.468;2023-10-09T08:46:50;18.20;;;9.60;;
53666;SDS011;39568;51.026;5.468;2023-10-09T08:49:16;22.70;;;9.75;;
53666;SDS011;39568;51.026;5.468;2023-10-09T08:51:44;24.92;;;10.00;;
53666;SDS011;39568;51.026;5.468;2023-10-09T08:54:12;15.70;;;9.63;;
53666;SDS011;39568;51.026;5.468;2023-10-09T08:56:40;18.25;;;9.95;;
53666;SDS011;39568;51.026;5.468;2023-10-09T08:59:14;22.73;;;10.02;;
53666;SDS011;39568;51.026;5.468;2023-10-09T09:01:43;20.17;;;10.73;;
53666;SDS011;39568;51.026;5.468;2023-10-09T09:04:30;16.45;;;9.02;;
53666;SDS011;39568;51.026;5.468;2023-10-09T09:07:00;17.38;;;10.23;;
53666;SDS011;39568;51.026;5.468;2023-10-09T09:09:27;20.75;;;7.38;;
53666;SDS011;39568;51.026;5.468;2023-10-09T09:11:57;17.20;;;8.40;;
53666;SDS011;39568;51.026;5.468;2023-10-09T09:14:35;20.05;;;7.47;;
53666;SDS011;39568;51.026;5.468;2023-10-09T09:17:03;13.68;;;8.10;;
53666;SDS011;39568;51.026;5.468;2023-10-09T09:19:31;14.65;;;7.93;;
53666;SDS011;39568;51.026;5.468;2023-10-09T09:22:03;18.35;;;7.22;;
53666;SDS011;39568;51.026;5.468;2023-10-09T09:24:37;15.02;;;7.25;;
53666;SDS011;39568;51.026;5.468;2023-10-09T09:27:10;19.02;;;9.00;;
53666;SDS011;39568;51.026;5.468;2023-10-09T09:29:45;18.67;;;9.15;;
53666;SDS011;39568;51.026;5.468;2023-10-09T09:32:26;17.40;;;8.80;;
53666;SDS011;39568;51.026;5.468;2023-10-09T09:35:02;18.50;;;9.88;;
53666;SDS011;39568;51.026;5.468;2023-10-09T09:37:31;12.50;;;7.35;;
53666;SDS011;39568;51.026;5.468;2023-10-09T09:40:15;14.30;;;7.45;;
53666;SDS011;39568;51.026;5.468;2023-10-09T09:42:54;19.60;;;6.85;;
53666;SDS011;39568;51.026;5.468;2023-10-09T09:45:30;22.58;;;7.15;;
53666;SDS011;39568;51.026;5.468;2023-10-09T09:47:59;13.80;;;7.95;;
53666;SDS011;39568;51.026;5.468;2023-10-09T09:50:32;11.95;;;6.43;;
53666;SDS011;39568;51.026;5.468;2023-10-09T09:55:33;17.35;;;8.65;;
53666;SDS011;39568;51.026;5.468;2023-10-09T09:58:01;19.50;;;8.98;;
53666;SDS011;39568;51.026;5.468;2023-10-09T10:00:31;12.13;;;7.73;;
53666;SDS011;39568;51.026;5.468;2023-10-09T10:03:09;11.52;;;7.63;;
53666;SDS011;39568;51.026;5.468;2023-10-09T10:05:40;14.50;;;7.90;;
53666;SDS011;39568;51.026;5.468;2023-10-09T10:08:11;15.85;;;9.32;;
53666;SDS011;39568;51.026;5.468;2023-10-09T10:10:45;8.88;;;6.88;;
53666;SDS011;39568;51.026;5.468;2023-10-09T10:13:18;11.48;;;8.00;;
53666;SDS011;39568;51.026;5.468;2023-10-09T10:16:32;15.43;;;8.75;;
53666;SDS011;39568;51.026;5.468;2023-10-09T10:22:41;13.38;;;6.25;;
53666;SDS011;39568;51.026;5.468;2023-10-09T10:25:16;15.52;;;8.30;;
53666;SDS011;39568;51.026;5.468;2023-10-09T10:28:15;11.73;;;6.60;;
53666;SDS011;39568;51.026;5.468;2023-10-09T10:30:53;12.18;;;6.85;;
53666;SDS011;39568;51.026;5.468;2023-10-09T10:33:20;14.88;;;8.02;;
53666;SDS011;39568;51.026;5.468;2023-10-09T10:35:51;17.83;;;7.83;;
53666;SDS011;39568;51.026;5.468;2023-10-09T10:38:25;14.43;;;8.77;;
53666;SDS011;39568;51.026;5.468;2023-10-09T10:41:07;18.98;;;7.78;;
53666;SDS011;39568;51.026;5.468;2023-10-09T10:43:38;14.60;;;6.43;;
53666;SDS011;39568;51.026;5.468;2023-10-09T10:46:26;13.40;;;7.97;;
53666;SDS011;39568;51.026;5.468;2023-10-09T10:49:04;17.25;;;7.63;;
53666;SDS011;39568;51.026;5.468;2023-10-09T10:51:46;12.95;;;6.95;;
53666;SDS011;39568;51.026;5.468;2023-10-09T10:54:27;11.83;;;7.63;;
53666;SDS011;39568;51.026;5.468;2023-10-09T10:57:26;14.73;;;7.97;;
53666;SDS011;39568;51.026;5.468;2023-10-09T10:59:56;14.93;;;8.32;;
53666;SDS011;39568;51.026;5.468;2023-10-09T11:02:58;11.68;;;6.88;;
53666;SDS011;39568;51.026;5.468;2023-10-09T11:05:38;15.27;;;6.72;;
53666;SDS011;39568;51.026;5.468;2023-10-09T11:08:09;14.80;;;8.60;;
53666;SDS011;39568;51.026;5.468;2023-10-09T11:10:37;13.30;;;7.00;;
53666;SDS011;39568;51.026;5.468;2023-10-09T11:13:20;13.27;;;6.00;;
53666;SDS011;39568;51.026;5.468;2023-10-09T11:16:00;12.02;;;6.78;;
53666;SDS011;39568;51.026;5.468;2023-10-09T11:18:53;10.00;;;6.80;;
53666;SDS011;39568;51.026;5.468;2023-10-09T11:21:22;10.30;;;6.07;;
53666;SDS011;39568;51.026;5.468;2023-10-09T11:23:57;13.20;;;7.18;;
53666;SDS011;39568;51.026;5.468;2023-10-09T11:26:46;17.90;;;5.45;;
53666;SDS011;39568;51.026;5.468;2023-10-09T11:29:19;12.00;;;6.50;;
53666;SDS011;39568;51.026;5.468;2023-10-09T11:32:00;12.38;;;6.38;;
53666;SDS011;39568;51.026;5.468;2023-10-09T11:34:28;6.53;;;5.00;;
53666;SDS011;39568;51.026;5.468;2023-10-09T11:37:00;9.68;;;5.38;;
53666;SDS011;39568;51.026;5.468;2023-10-09T11:39:28;12.23;;;6.30;;
53666;SDS011;39568;51.026;5.468;2023-10-09T11:42:05;12.77;;;6.35;;
53666;SDS011;39568;51.026;5.468;2023-10-09T11:44:39;14.02;;;6.40;;
53666;SDS011;39568;51.026;5.468;2023-10-09T11:47:06;10.63;;;4.97;;
53666;SDS011;39568;51.026;5.468;2023-10-09T11:49:57;21.60;;;5.13;;
53666;SDS011;39568;51.026;5.468;2023-10-09T11:52:55;12.75;;;6.65;;
53666;SDS011;39568;51.026;5.468;2023-10-09T11:55:34;18.17;;;6.10;;
53666;SDS011;39568;51.026;5.468;2023-10-09T11:58:04;13.55;;;7.03;;
53666;SDS011;39568;51.026;5.468;2023-10-09T12:00:32;13.02;;;5.10;;
53666;SDS011;39568;51.026;5.468;2023-10-09T12:03:09;10.73;;;4.55;;
53666;SDS011;39568;51.026;5.468;2023-10-09T12:05:36;12.60;;;6.47;;
53666;SDS011;39568;51.026;5.468;2023-10-09T12:10:34;20.60;;;6.53;;
53666;SDS011;39568;51.026;5.468;2023-10-09T12:13:05;14.82;;;6.40;;
53666;SDS011;39568;51.026;5.468;2023-10-09T12:15:32;9.35;;;4.85;;
53666;SDS011;39568;51.026;5.468;2023-10-09T12:18:04;7.90;;;5.20;;
53666;SDS011;39568;51.026;5.468;2023-10-09T12:20:40;13.23;;;5.53;;
53666;SDS011;39568;51.026;5.468;2023-10-09T12:23:07;10.02;;;5.35;;
53666;SDS011;39568;51.026;5.468;2023-10-09T12:25:40;9.05;;;5.03;;
53666;SDS011;39568;51.026;5.468;2023-10-09T12:28:11;14.88;;;6.50;;
53666;SDS011;39568;51.026;5.468;2023-10-09T12:30:45;20.40;;;7.30;;
53666;SDS011;39568;51.026;5.468;2023-10-09T12:33:15;16.73;;;6.67;;
53666;SDS011;39568;51.026;5.468;2023-10-09T12:35:43;17.23;;;5.93;;
53666;SDS011;39568;51.026;5.468;2023-10-09T12:38:12;11.45;;;5.55;;
53666;SDS011;39568;51.026;5.468;2023-10-09T12:40:43;13.07;;;5.63;;
53666;SDS011;39568;51.026;5.468;2023-10-09T12:43:17;9.70;;;4.38;;
53666;SDS011;39568;51.026;5.468;2023-10-09T12:45:44;6.43;;;4.65;;
53666;SDS011;39568;51.026;5.468;2023-10-09T12:48:11;8.23;;;6.22;;
53666;SDS011;39568;51.026;5.468;2023-10-09T12:50:39;15.48;;;5.57;;
53666;SDS011;39568;51.026;5.468;2023-10-09T12:53:09;12.25;;;6.13;;
53666;SDS011;39568;51.026;5.468;2023-10-09T12:55:36;10.82;;;6.32;;
53666;SDS011;39568;51.026;5.468;2023-10-09T12:58:06;16.45;;;4.93;;
53666;SDS011;39568;51.026;5.468;2023-10-09T13:00:35;13.52;;;5.70;;
53666;SDS011;39568;51.026;5.468;2023-10-09T13:03:09;18.92;;;6.65;;
53666;SDS011;39568;51.026;5.468;2023-10-09T13:05:43;10.52;;;6.10;;
53666;SDS011;39568;51.026;5.468;2023-10-09T13:08:17;21.60;;;6.28;;
53666;SDS011;39568;51.026;5.468;2023-10-09T13:10:46;13.30;;;5.45;;
53666;SDS011;39568;51.026;5.468;2023-10-09T13:13:14;12.85;;;5.47;;
53666;SDS011;39568;51.026;5.468;2023-10-09T13:15:42;12.52;;;6.25;;
53666;SDS011;39568;51.026;5.468;2023-10-09T13:18:09;14.40;;;5.72;;
53666;SDS011;39568;51.026;5.468;2023-10-09T13:20:37;13.02;;;6.55;;
53666;SDS011;39568;51.026;5.468;2023-10-09T13:23:04;11.98;;;6.63;;
53666;SDS011;39568;51.026;5.468;2023-10-09T13:25:32;15.15;;;7.57;;
53666;SDS011;39568;51.026;5.468;2023-10-09T13:28:04;13.65;;;5.80;;
53666;SDS011;39568;51.026;5.468;2023-10-09T13:30:31;10.43;;;5.63;;
53666;SDS011;39568;51.026;5.468;2023-10-09T13:33:05;8.20;;;5.88;;
53666;SDS011;39568;51.026;5.468;2023-10-09T13:35:32;25.08;;;6.47;;
53666;SDS011;39568;51.026;5.468;2023-10-09T13:38:03;16.15;;;5.95;;
53666;SDS011;39568;51.026;5.468;2023-10-09T13:40:33;13.95;;;6.43;;
53666;SDS011;39568;51.026;5.468;2023-10-09T13:43:02;14.35;;;7.75;;
53666;SDS011;39568;51.026;5.468;2023-10-09T13:45:31;13.88;;;6.63;;
53666;SDS011;39568;51.026;5.468;2023-10-09T13:47:58;13.77;;;6.63;;
53666;SDS011;39568;51.026;5.468;2023-10-09T13:50:29;13.05;;;6.43;;
53666;SDS011;39568;51.026;5.468;2023-10-09T13:52:58;11.60;;;6.00;;
53666;SDS011;39568;51.026;5.468;2023-10-09T13:55:25;16.58;;;5.90;;
53666;SDS011;39568;51.026;5.468;2023-10-09T13:57:56;13.20;;;6.82;;
53666;SDS011;39568;51.026;5.468;2023-10-09T14:00:23;16.48;;;6.53;;
53666;SDS011;39568;51.026;5.468;2023-10-09T14:02:59;7.90;;;4.60;;
53666;SDS011;39568;51.026;5.468;2023-10-09T14:05:38;17.73;;;7.15;;
53666;SDS011;39568;51.026;5.468;2023-10-09T14:08:17;17.83;;;6.10;;
53666;SDS011;39568;51.026;5.468;2023-10-09T14:10:48;12.48;;;6.18;;
53666;SDS011;39568;51.026;5.468;2023-10-09T14:13:15;12.32;;;4.75;;
53666;SDS011;39568;51.026;5.468;2023-10-09T14:15:42;14.50;;;7.15;;
53666;SDS011;39568;51.026;5.468;2023-10-09T14:18:11;14.98;;;6.65;;
53666;SDS011;39568;51.026;5.468;2023-10-09T14:20:39;14.57;;;7.03;;
53666;SDS011;39568;51.026;5.468;2023-10-09T14:23:06;12.45;;;7.88;;
53666;SDS011;39568;51.026;5.468;2023-10-09T14:25:36;13.82;;;7.10;;
53666;SDS011;39568;51.026;5.468;2023-10-09T14:28:05;14.05;;;7.00;;
53666;SDS011;39568;51.026;5.468;2023-10-09T14:30:33;20.02;;;7.38;;
53666;SDS011;39568;51.026;5.468;2023-10-09T14:33:07;13.00;;;6.68;;
53666;SDS011;39568;51.026;5.468;2023-10-09T14:35:37;12.68;;;6.35;;
53666;SDS011;39568;51.026;5.468;2023-10-09T14:38:07;16.08;;;6.47;;
53666;SDS011;39568;51.026;5.468;2023-10-09T14:40:40;16.70;;;8.00;;
53666;SDS011;39568;51.026;5.468;2023-10-09T14:43:08;20.57;;;7.67;;
53666;SDS011;39568;51.026;5.468;2023-10-09T14:45:44;17.30;;;8.38;;
53666;SDS011;39568;51.026;5.468;2023-10-09T14:48:14;17.90;;;7.47;;
53666;SDS011;39568;51.026;5.468;2023-10-09T14:50:48;18.25;;;7.65;;
53666;SDS011;39568;51.026;5.468;2023-10-09T14:53:29;21.23;;;9.23;;
53666;SDS011;39568;51.026;5.468;2023-10-09T14:55:57;19.98;;;8.10;;
53666;SDS011;39568;51.026;5.468;2023-10-09T14:58:26;17.70;;;9.55;;
53666;SDS011;39568;51.026;5.468;2023-10-09T15:00:54;10.68;;;7.25;;
53666;SDS011;39568;51.026;5.468;2023-10-09T15:03:21;16.63;;;8.65;;
53666;SDS011;39568;51.026;5.468;2023-10-09T15:05:50;21.98;;;9.27;;
53666;SDS011;39568;51.026;5.468;2023-10-09T15:08:16;11.65;;;7.35;;
53666;SDS011;39568;51.026;5.468;2023-10-09T15:10:52;15.15;;;8.43;;
53666;SDS011;39568;51.026;5.468;2023-10-09T15:13:21;20.27;;;8.60;;
53666;SDS011;39568;51.026;5.468;2023-10-09T15:15:53;22.15;;;9.25;;
53666;SDS011;39568;51.026;5.468;2023-10-09T15:18:21;20.02;;;8.52;;
53666;SDS011;39568;51.026;5.468;2023-10-09T15:20:49;17.45;;;8.38;;
53666;SDS011;39568;51.026;5.468;2023-10-09T15:23:17;19.80;;;9.63;;
53666;SDS011;39568;51.026;5.468;2023-10-09T15:25:45;26.15;;;12.85;;
53666;SDS011;39568;51.026;5.468;2023-10-09T15:28:20;15.63;;;10.88;;
53666;SDS011;39568;51.026;5.468;2023-10-09T15:30:55;20.73;;;9.20;;
53666;SDS011;39568;51.026;5.468;2023-10-09T15:33:25;17.38;;;8.73;;
53666;SDS011;39568;51.026;5.468;2023-10-09T15:35:57;10.52;;;7.18;;
53666;SDS011;39568;51.026;5.468;2023-10-09T15:38:24;13.73;;;7.60;;